createdAt,value
2023-03-18T00:00:34.457Z,65.70
2023-03-18T00:01:34.445Z,65.60
2023-03-18T00:02:34.368Z,65.50
2023-03-18T00:03:34.391Z,65.30
2023-03-18T00:04:34.233Z,65.30
2023-03-18T00:05:34.173Z,65.30
2023-03-18T00:06:34.138Z,65.09
2023-03-18T00:07:34.058Z,65.30
2023-03-18T00:08:33.985Z,65.53
2023-03-18T00:10:43.139Z,65.33
2023-03-18T00:11:44.080Z,65.22
2023-03-18T00:12:44.023Z,65.73
2023-03-18T00:13:43.959Z,65.43
2023-03-18T00:14:43.893Z,65.53
2023-03-18T00:15:43.869Z,65.43
2023-03-18T00:16:43.746Z,65.43
2023-03-18T00:17:43.746Z,65.53
2023-03-18T00:18:43.624Z,65.33
2023-03-18T00:19:43.606Z,65.33
2023-03-18T00:20:43.556Z,65.53
2023-03-18T00:21:43.490Z,65.33
2023-03-18T00:22:43.438Z,65.43
2023-03-18T00:23:43.334Z,65.63
2023-03-18T00:24:43.312Z,65.63
2023-03-18T00:25:43.185Z,65.73
2023-03-18T00:26:43.130Z,65.84
2023-03-18T00:27:43.125Z,65.94
2023-03-18T00:28:43.059Z,65.94
2023-03-18T00:29:42.962Z,66.04
2023-03-18T00:30:42.928Z,65.94
2023-03-18T00:31:42.853Z,66.04
2023-03-18T00:32:42.767Z,66.14
2023-03-18T00:33:42.735Z,66.14
2023-03-18T00:34:42.656Z,66.04
2023-03-18T00:35:42.595Z,66.04
2023-03-18T00:36:42.532Z,65.94
2023-03-18T00:37:42.487Z,65.94
2023-03-18T00:38:42.425Z,65.84
2023-03-18T00:41:51.139Z,66.25
2023-03-18T00:42:54.820Z,66.04
2023-03-18T00:43:52.013Z,65.53
2023-03-18T00:44:51.986Z,65.63
2023-03-18T00:45:51.899Z,65.63
2023-03-18T00:46:51.870Z,65.73
2023-03-18T00:47:51.740Z,65.63
2023-03-18T00:48:51.644Z,65.63
2023-03-18T00:49:51.613Z,65.43
2023-03-18T00:50:51.552Z,65.63
2023-03-18T00:51:51.547Z,65.73
2023-03-18T00:52:51.454Z,65.73
2023-03-18T00:53:51.371Z,65.50
2023-03-18T00:54:51.336Z,66.11
2023-03-18T00:55:51.296Z,66.11
2023-03-18T00:56:51.180Z,66.11
2023-03-18T00:58:12.132Z,65.80
2023-03-18T00:58:51.088Z,65.91
2023-03-18T00:59:51.049Z,65.91
2023-03-18T01:00:51.010Z,65.91
2023-03-18T01:01:50.921Z,65.60
2023-03-18T01:02:50.831Z,65.70
2023-03-18T01:03:50.796Z,65.91
2023-03-18T01:04:50.747Z,65.50
2023-03-18T01:05:50.644Z,65.50
2023-03-18T01:06:50.621Z,65.91
2023-03-18T01:07:50.526Z,65.80
2023-03-18T01:08:50.472Z,66.01
2023-03-18T01:09:50.471Z,65.80
2023-03-18T01:10:50.323Z,65.70
2023-03-18T01:11:50.274Z,65.80
2023-03-18T01:12:50.199Z,65.70
2023-03-18T01:13:50.206Z,65.50
2023-03-18T01:14:50.117Z,65.70
2023-03-18T01:15:50.080Z,65.70
2023-03-18T01:16:50.033Z,65.60
2023-03-18T01:17:49.879Z,65.91
2023-03-18T01:18:49.868Z,66.01
2023-03-18T01:19:49.828Z,65.91
2023-03-18T01:20:49.717Z,66.01
2023-03-18T01:21:49.651Z,65.91
2023-03-18T01:22:49.622Z,65.91
2023-03-18T01:23:49.533Z,65.91
2023-03-18T01:24:49.468Z,65.91
2023-03-18T01:25:49.431Z,66.01
2023-03-18T01:26:49.346Z,66.21
2023-03-18T01:27:49.298Z,66.31
2023-03-18T01:28:49.229Z,66.21
2023-03-18T01:29:49.192Z,66.11
2023-03-18T01:30:49.073Z,66.96
2023-03-18T01:31:49.077Z,66.45
2023-03-18T01:32:49.092Z,66.45
2023-03-18T01:33:48.978Z,66.66
2023-03-18T01:34:48.821Z,67.27
2023-03-18T01:35:48.773Z,66.75
2023-03-18T01:36:48.755Z,66.55
2023-03-18T01:37:48.630Z,66.35
2023-03-18T01:38:48.635Z,66.75
2023-03-18T01:39:48.583Z,67.07
2023-03-18T01:40:48.474Z,66.45
2023-03-18T01:41:48.429Z,66.45
2023-03-18T01:42:48.360Z,66.45
2023-03-18T01:43:48.290Z,66.75
2023-03-18T01:44:48.203Z,66.55
2023-03-18T01:45:48.243Z,66.66
2023-03-18T01:46:48.105Z,66.66
2023-03-18T01:47:48.035Z,67.07
2023-03-18T01:48:47.949Z,66.96
2023-03-18T01:49:47.918Z,67.07
2023-03-18T01:50:47.875Z,66.86
2023-03-18T01:54:16.806Z,67.37
2023-03-18T01:55:17.777Z,67.57
2023-03-18T01:56:17.707Z,67.47
2023-03-18T01:57:17.648Z,67.88
2023-03-18T01:58:17.623Z,68.39
2023-03-18T01:59:17.541Z,68.39
2023-03-18T02:00:17.456Z,68.60
2023-03-18T02:01:17.413Z,68.90
2023-03-18T02:02:17.319Z,69.31
2023-03-18T02:03:17.271Z,69.11
2023-03-18T02:04:46.568Z,69.52
2023-03-18T02:05:47.470Z,69.82
2023-03-18T02:06:47.416Z,71.15
2023-03-18T02:07:47.351Z,71.36
2023-03-18T02:08:47.263Z,70.03
2023-03-18T02:09:47.275Z,71.08
2023-03-18T02:11:58.288Z,72.11
2023-03-18T02:12:57.331Z,71.90
2023-03-18T02:13:57.239Z,72.11
2023-03-18T02:14:57.241Z,72.31
2023-03-18T02:15:57.153Z,73.64
2023-03-18T02:16:57.144Z,74.76
2023-03-18T02:17:56.994Z,75.59
2023-03-18T02:18:57.006Z,76.84
2023-03-18T02:19:56.868Z,77.46
2023-03-18T02:20:56.846Z,77.87
2023-03-18T02:21:56.749Z,78.49
2023-03-18T02:22:56.752Z,79.10
2023-03-18T02:23:56.650Z,79.34
2023-03-18T02:24:56.616Z,79.34
2023-03-18T02:25:56.556Z,80.16
2023-03-18T02:26:56.458Z,80.57
2023-03-18T02:27:56.378Z,79.79
2023-03-18T02:28:56.343Z,81.43
2023-03-18T02:29:56.297Z,81.94
2023-03-18T02:30:56.224Z,83.27
2023-03-18T02:31:56.180Z,84.23
2023-03-18T02:32:56.133Z,84.53
2023-03-18T02:33:56.046Z,84.44
2023-03-18T02:34:55.978Z,84.95
2023-03-18T02:35:56.025Z,85.39
2023-03-18T02:36:55.864Z,86.01
2023-03-18T02:37:55.775Z,86.42
2023-03-18T02:38:55.748Z,87.04
2023-03-18T02:39:55.652Z,87.76
2023-03-18T02:40:55.601Z,88.10
2023-03-18T02:41:55.526Z,88.82
2023-03-18T02:42:55.469Z,88.92
2023-03-18T02:43:55.377Z,87.79
2023-03-18T02:44:55.312Z,88.41
2023-03-18T02:45:55.265Z,89.43
2023-03-18T02:46:55.212Z,89.84
2023-03-18T02:47:55.099Z,90.50
2023-03-18T02:48:55.038Z,90.81
2023-03-18T02:49:54.988Z,91.22
2023-03-18T02:50:54.940Z,91.12
2023-03-18T02:51:54.887Z,91.84
2023-03-18T02:52:54.819Z,92.97
2023-03-18T02:53:54.727Z,93.27
2023-03-18T02:54:54.678Z,93.32
2023-03-18T02:55:54.661Z,94.04
2023-03-18T02:56:54.635Z,94.34
2023-03-18T02:57:54.574Z,94.45
2023-03-18T02:58:54.475Z,94.76
2023-03-18T02:59:54.369Z,94.65
2023-03-18T03:00:54.290Z,94.76
2023-03-18T03:01:54.265Z,95.68
2023-03-18T03:02:54.357Z,96.40
2023-03-18T03:03:54.162Z,95.78
2023-03-18T03:05:15.113Z,95.27
2023-03-18T03:05:54.017Z,95.31
2023-03-18T03:06:53.952Z,96.09
2023-03-18T03:07:53.910Z,96.03
2023-03-18T03:08:53.852Z,95.83
2023-03-18T03:09:53.781Z,96.03
2023-03-18T03:10:53.736Z,96.44
2023-03-18T03:11:53.636Z,96.95
2023-03-18T03:12:53.627Z,97.27
2023-03-18T03:13:54.124Z,97.06
2023-03-18T03:14:53.477Z,96.55
2023-03-18T03:15:53.435Z,96.23
2023-03-18T03:16:53.341Z,96.14
2023-03-18T03:17:53.305Z,96.34
2023-03-18T03:18:53.188Z,96.75
2023-03-18T03:19:53.162Z,96.75
2023-03-18T03:20:53.106Z,96.85
2023-03-18T03:21:53.068Z,96.85
2023-03-18T03:24:02.196Z,96.75
2023-03-18T03:25:03.136Z,96.85
2023-03-18T03:26:03.115Z,96.95
2023-03-18T03:27:03.009Z,97.16
2023-03-18T03:28:02.988Z,97.06
2023-03-18T03:29:02.910Z,96.95
2023-03-18T03:30:02.801Z,97.06
2023-03-18T03:31:02.761Z,96.85
2023-03-18T03:32:02.705Z,96.75
2023-03-18T03:33:02.688Z,96.55
2023-03-18T03:34:02.581Z,96.85
2023-03-18T03:35:02.533Z,97.06
2023-03-18T03:36:02.491Z,97.16
2023-03-18T03:37:02.395Z,97.06
2023-03-18T03:38:02.360Z,97.06
2023-03-18T03:39:02.258Z,97.06
2023-03-18T03:40:02.208Z,96.95
2023-03-18T03:42:11.399Z,97.27
2023-03-18T03:43:12.324Z,97.16
2023-03-18T03:44:12.260Z,97.16
2023-03-18T03:45:12.210Z,97.37
2023-03-18T03:46:12.125Z,97.47
2023-03-18T03:47:12.059Z,97.47
2023-03-18T03:48:12.012Z,97.16
2023-03-18T03:49:11.945Z,96.75
2023-03-18T03:50:11.912Z,96.55
2023-03-18T03:51:11.801Z,96.55
2023-03-18T03:52:11.772Z,96.75
2023-03-18T03:53:11.688Z,97.06
2023-03-18T03:54:11.666Z,97.06
2023-03-18T03:55:11.576Z,96.95
2023-03-18T03:56:11.546Z,97.06
2023-03-18T03:57:11.462Z,97.27
2023-03-18T03:58:11.451Z,97.06
2023-03-18T04:00:50.298Z,97.06
2023-03-18T04:01:51.233Z,97.27
2023-03-18T04:02:51.320Z,97.16
2023-03-18T04:03:51.173Z,97.06
2023-03-18T04:04:51.069Z,96.95
2023-03-18T04:05:51.008Z,96.95
2023-03-18T04:06:50.963Z,97.06
2023-03-18T04:07:50.895Z,96.85
2023-03-18T04:08:50.795Z,97.06
2023-03-18T04:09:50.769Z,97.06
2023-03-18T04:10:50.695Z,97.06
2023-03-18T04:11:50.638Z,97.06
2023-03-18T04:12:50.580Z,97.06
2023-03-18T04:13:50.467Z,97.06
2023-03-18T04:14:51.826Z,97.16
2023-03-18T04:15:50.380Z,97.16
2023-03-18T04:16:50.326Z,97.37
2023-03-18T04:17:50.273Z,97.37
2023-03-18T04:18:50.181Z,97.37
2023-03-18T04:19:50.087Z,97.27
2023-03-18T04:20:50.062Z,97.27
2023-03-18T04:21:50.024Z,97.37
2023-03-18T04:22:49.916Z,97.37
2023-03-18T04:23:49.845Z,97.47
2023-03-18T04:24:49.785Z,97.57
2023-03-18T04:25:49.770Z,97.57
2023-03-18T04:26:49.680Z,97.67
2023-03-18T04:27:49.659Z,97.67
2023-03-18T04:28:49.606Z,97.57
2023-03-18T04:29:49.519Z,97.57
2023-03-18T04:30:49.429Z,97.67
2023-03-18T04:31:49.438Z,97.57
2023-03-18T04:32:49.321Z,97.57
2023-03-18T04:33:49.287Z,97.47
2023-03-18T04:34:49.215Z,97.47
2023-03-18T04:35:49.186Z,97.47
2023-03-18T04:36:49.071Z,97.67
2023-03-18T04:37:49.004Z,97.57
2023-03-18T04:38:48.932Z,97.57
2023-03-18T04:39:48.877Z,97.78
2023-03-18T04:40:48.829Z,97.78
2023-03-18T04:41:48.747Z,97.88
2023-03-18T04:42:48.681Z,98.08
2023-03-18T04:43:48.605Z,98.08
2023-03-18T04:44:48.587Z,97.88
2023-03-18T04:45:48.496Z,97.78
2023-03-18T04:46:48.486Z,97.99
2023-03-18T04:47:48.371Z,97.99
2023-03-18T04:48:48.318Z,97.88
2023-03-18T04:49:48.264Z,97.67
2023-03-18T04:50:48.191Z,97.78
2023-03-18T04:51:48.150Z,97.88
2023-03-18T04:52:48.123Z,98.19
2023-03-18T04:53:48.039Z,98.19
2023-03-18T04:54:47.939Z,98.39
2023-03-18T04:55:47.877Z,98.39
2023-03-18T04:56:47.788Z,98.39
2023-03-18T04:57:47.721Z,98.39
2023-03-18T04:58:47.677Z,98.19
2023-03-18T04:59:47.663Z,98.19
2023-03-18T05:00:47.614Z,98.19
2023-03-18T05:01:47.528Z,98.08
2023-03-18T05:02:47.442Z,98.08
2023-03-18T05:03:47.422Z,98.29
2023-03-18T05:04:47.326Z,98.29
2023-03-18T05:05:47.281Z,98.29
2023-03-18T05:06:47.249Z,98.29
2023-03-18T05:07:47.162Z,98.39
2023-03-18T05:08:47.074Z,98.50
2023-03-18T05:09:46.983Z,98.50
2023-03-18T05:12:25.821Z,98.70
2023-03-18T05:13:26.701Z,98.70
2023-03-18T05:14:26.667Z,98.60
2023-03-18T05:15:26.596Z,98.60
2023-03-18T05:16:26.547Z,98.39
2023-03-18T05:17:26.457Z,98.19
2023-03-18T05:18:26.393Z,98.08
2023-03-18T05:19:26.369Z,97.99
2023-03-18T05:20:26.271Z,97.99
2023-03-18T05:21:26.268Z,97.99
2023-03-18T05:22:26.203Z,97.99
2023-03-18T05:23:26.134Z,97.99
2023-03-18T05:24:26.024Z,98.19
2023-03-18T05:25:26.010Z,98.08
2023-03-18T05:26:25.903Z,97.99
2023-03-18T05:27:25.914Z,97.88
2023-03-18T05:28:46.781Z,97.78
2023-03-18T05:29:25.731Z,97.67
2023-03-18T05:30:25.735Z,97.88
2023-03-18T05:31:25.660Z,97.78
2023-03-18T05:32:25.550Z,97.78
2023-03-18T05:33:25.461Z,97.78
2023-03-18T05:34:25.451Z,97.88
2023-03-18T05:35:25.365Z,97.99
2023-03-18T05:36:25.283Z,97.99
2023-03-18T05:37:25.266Z,97.78
2023-03-18T05:38:25.185Z,97.78
2023-03-18T05:39:25.141Z,97.78
2023-03-18T05:40:25.084Z,97.78
2023-03-18T05:41:24.974Z,97.78
2023-03-18T05:42:24.933Z,97.88
2023-03-18T05:43:24.862Z,97.99
2023-03-18T05:44:24.772Z,97.99
2023-03-18T05:45:24.743Z,97.99
2023-03-18T05:46:24.664Z,98.03
2023-03-18T05:47:24.629Z,98.13
2023-03-18T05:48:24.529Z,98.19
2023-03-18T05:49:24.504Z,98.19
2023-03-18T05:50:24.425Z,98.24
2023-03-18T05:51:24.360Z,98.13
2023-03-18T05:52:24.319Z,98.24
2023-03-18T05:53:24.233Z,98.19
2023-03-18T05:54:24.164Z,98.19
2023-03-18T05:55:24.110Z,98.19
2023-03-18T05:56:24.032Z,98.08
2023-03-18T05:57:23.966Z,98.08
2023-03-18T05:58:23.913Z,98.19
2023-03-18T05:59:23.884Z,97.99
2023-03-18T06:00:23.810Z,97.99
2023-03-18T06:01:25.749Z,97.99
2023-03-18T06:02:23.696Z,97.99
2023-03-18T06:03:23.639Z,98.19
2023-03-18T06:04:23.571Z,98.29
2023-03-18T06:05:23.496Z,98.29
2023-03-18T06:06:23.465Z,98.39
2023-03-18T06:07:23.372Z,98.50
2023-03-18T06:08:23.317Z,98.60
2023-03-18T06:09:23.327Z,98.70
2023-03-18T06:10:23.193Z,98.80
2023-03-18T06:11:23.120Z,98.80
2023-03-18T06:12:23.040Z,98.55
2023-03-18T06:13:23.003Z,97.99
2023-03-18T06:14:22.964Z,97.44
2023-03-18T06:15:22.849Z,96.62
2023-03-18T06:16:22.876Z,96.20
2023-03-18T06:17:22.758Z,96.10
2023-03-18T06:18:22.718Z,95.90
2023-03-18T06:19:22.676Z,95.44
2023-03-18T06:20:22.577Z,94.68
2023-03-18T06:21:22.512Z,94.02
2023-03-18T06:22:43.449Z,93.47
2023-03-18T06:23:22.385Z,92.50
2023-03-18T06:24:22.335Z,91.48
2023-03-18T06:25:22.262Z,90.92
2023-03-18T06:26:22.204Z,90.37
2023-03-18T06:27:22.112Z,89.45
2023-03-18T06:28:22.096Z,88.70
2023-03-18T06:29:22.004Z,88.45
2023-03-18T06:30:21.912Z,87.94
2023-03-18T06:31:21.988Z,87.23
2023-03-18T06:32:21.816Z,86.98
2023-03-18T06:33:21.759Z,86.88
2023-03-18T06:34:21.739Z,87.18
2023-03-18T06:35:21.606Z,85.75
2023-03-18T06:36:21.548Z,86.16
2023-03-18T06:37:21.509Z,86.88
2023-03-18T06:38:21.417Z,86.36
2023-03-18T06:39:21.385Z,85.96
2023-03-18T06:40:21.318Z,85.92
2023-03-18T06:41:21.245Z,85.21
2023-03-18T06:42:21.238Z,85.41
2023-03-18T06:43:21.119Z,85.16
2023-03-18T06:44:21.101Z,85.37
2023-03-18T06:45:21.014Z,84.66
2023-03-18T06:46:21.008Z,83.90
2023-03-18T06:47:20.866Z,83.49
2023-03-18T06:48:20.860Z,83.15
2023-03-18T06:49:20.791Z,82.40
2023-03-18T06:50:20.696Z,81.88
2023-03-18T06:51:20.654Z,81.74
2023-03-18T06:52:20.572Z,81.04
2023-03-18T06:53:20.541Z,80.73
2023-03-18T06:54:20.480Z,81.40
2023-03-18T06:55:20.394Z,80.35
2023-03-18T06:56:20.362Z,79.19
2023-03-18T06:57:20.280Z,79.29
2023-03-18T06:58:41.163Z,77.63
2023-03-18T06:59:20.172Z,76.88
2023-03-18T07:00:20.090Z,76.98
2023-03-18T07:01:20.069Z,76.64
2023-03-18T07:02:19.969Z,76.03
2023-03-18T07:03:19.921Z,76.37
2023-03-18T07:04:19.914Z,76.48
2023-03-18T07:05:19.776Z,76.14
2023-03-18T07:06:19.713Z,75.63
2023-03-18T07:07:19.678Z,76.24
2023-03-18T07:08:19.596Z,75.79
2023-03-18T07:09:19.500Z,75.90
2023-03-18T07:10:19.480Z,74.68
2023-03-18T07:11:19.433Z,75.09
2023-03-18T07:12:19.321Z,75.09
2023-03-18T07:13:19.314Z,75.15
2023-03-18T07:14:19.227Z,74.54
2023-03-18T07:15:19.166Z,73.49
2023-03-18T07:16:40.090Z,73.70
2023-03-18T07:17:19.046Z,73.19
2023-03-18T07:18:18.977Z,74.30
2023-03-18T07:19:19.478Z,74.71
2023-03-18T07:20:18.888Z,74.51
2023-03-18T07:21:18.794Z,72.85
2023-03-18T07:22:18.770Z,71.73
2023-03-18T07:23:18.646Z,71.91
2023-03-18T07:24:18.607Z,72.17
2023-03-18T07:25:18.582Z,71.73
2023-03-18T07:26:18.487Z,70.32
2023-03-18T07:27:18.428Z,70.52
2023-03-18T07:28:18.361Z,70.52
2023-03-18T07:29:18.328Z,70.56
2023-03-18T07:30:18.237Z,71.20
2023-03-18T07:31:18.319Z,71.91
2023-03-18T07:32:18.142Z,72.61
2023-03-18T07:33:18.083Z,72.01
2023-03-18T07:34:18.018Z,71.67
2023-03-18T07:35:17.944Z,71.03
2023-03-18T07:36:17.900Z,69.27
2023-03-18T07:37:17.813Z,68.87
2023-03-18T07:38:17.725Z,68.97
2023-03-18T07:39:18.709Z,69.89
2023-03-18T07:40:17.660Z,69.18
2023-03-18T07:41:17.602Z,69.01
2023-03-18T07:42:17.486Z,67.66
2023-03-18T07:43:17.454Z,67.56
2023-03-18T07:44:17.429Z,66.65
2023-03-18T07:45:17.349Z,66.72
2023-03-18T07:46:17.330Z,66.49
2023-03-18T07:47:17.243Z,66.49
2023-03-18T07:48:17.118Z,64.87
2023-03-18T07:49:17.080Z,64.64
2023-03-18T07:50:17.051Z,65.01
2023-03-18T07:51:16.955Z,64.34
2023-03-18T07:52:37.859Z,64.14
2023-03-18T07:53:16.975Z,65.38
2023-03-18T07:54:16.807Z,65.88
2023-03-18T07:55:16.722Z,65.21
2023-03-18T07:56:16.678Z,66.15
2023-03-18T07:57:16.611Z,67.66
2023-03-18T07:58:16.545Z,67.02
2023-03-18T07:59:18.586Z,66.49
2023-03-18T08:00:16.448Z,65.15
2023-03-18T08:01:16.575Z,65.01
2023-03-18T08:02:16.290Z,63.98
2023-03-18T08:03:16.218Z,64.07
2023-03-18T08:04:16.415Z,63.27
2023-03-18T08:05:16.379Z,62.64
2023-03-18T08:06:16.018Z,62.30
2023-03-18T08:07:15.987Z,61.63
2023-03-18T08:08:15.905Z,62.64
2023-03-18T08:09:15.845Z,61.60
2023-03-18T08:11:54.675Z,61.54
2023-03-18T08:12:55.636Z,61.21
2023-03-18T08:13:55.559Z,60.13
2023-03-18T08:14:55.465Z,60.64
2023-03-18T08:15:55.475Z,60.74
2023-03-18T08:16:55.379Z,60.77
2023-03-18T08:17:55.336Z,60.27
2023-03-18T08:18:55.248Z,61.40
2023-03-18T08:19:55.197Z,60.69
2023-03-18T08:20:55.152Z,60.47
2023-03-18T08:21:55.111Z,60.80
2023-03-18T08:22:55.032Z,61.03
2023-03-18T08:23:54.971Z,62.04
2023-03-18T08:24:54.898Z,61.83
2023-03-18T08:25:54.830Z,62.16
2023-03-18T08:26:54.780Z,61.99
2023-03-18T08:28:15.684Z,62.83
2023-03-18T08:28:54.644Z,63.23
2023-03-18T08:29:54.584Z,63.13
2023-03-18T08:30:54.523Z,63.79
2023-03-18T08:31:54.506Z,65.01
2023-03-18T08:32:54.416Z,65.04
2023-03-18T08:33:54.409Z,66.78
2023-03-18T08:34:54.306Z,66.69
2023-03-18T08:35:54.208Z,66.92
2023-03-18T08:36:54.165Z,67.96
2023-03-18T08:37:54.072Z,68.60
2023-03-18T08:38:54.021Z,68.03
2023-03-18T08:39:53.993Z,67.19
2023-03-18T08:40:53.920Z,66.69
2023-03-18T08:41:53.858Z,66.08
2023-03-18T08:42:53.801Z,66.92
2023-03-18T08:43:53.764Z,67.29
2023-03-18T08:44:53.675Z,66.45
2023-03-18T08:46:14.657Z,65.71
2023-03-18T08:46:53.536Z,65.28
2023-03-18T08:47:53.496Z,64.58
2023-03-18T08:48:53.467Z,64.04
2023-03-18T08:49:53.414Z,63.43
2023-03-18T08:50:53.320Z,63.00
2023-03-18T08:51:53.366Z,63.98
2023-03-18T08:52:53.201Z,63.47
2023-03-18T08:53:53.183Z,62.46
2023-03-18T08:54:53.101Z,62.13
2023-03-18T08:55:52.992Z,62.34
2023-03-18T08:56:52.963Z,61.43
2023-03-18T08:57:52.935Z,62.16
2023-03-18T08:58:52.834Z,61.59
2023-03-18T08:59:52.750Z,61.82
2023-03-18T09:00:52.800Z,63.79
2023-03-18T09:01:52.651Z,64.90
2023-03-18T09:02:52.598Z,65.11
2023-03-18T09:03:52.580Z,65.21
2023-03-18T09:04:52.494Z,64.78
2023-03-18T09:05:52.435Z,63.64
2023-03-18T09:06:52.354Z,63.73
2023-03-18T09:07:52.262Z,63.06
2023-03-18T09:08:52.260Z,62.93
2023-03-18T09:09:52.181Z,62.32
2023-03-18T09:10:52.144Z,62.85
2023-03-18T09:11:52.073Z,62.79
2023-03-18T09:12:51.994Z,64.10
2023-03-18T09:13:51.934Z,64.40
2023-03-18T09:14:51.866Z,64.61
2023-03-18T09:15:51.839Z,64.90
2023-03-18T09:16:51.759Z,64.61
2023-03-18T09:18:09.802Z,64.53
2023-03-18T09:18:51.627Z,65.44
2023-03-18T09:19:51.587Z,64.84
2023-03-18T09:20:51.525Z,64.73
2023-03-18T09:22:12.451Z,66.25
2023-03-18T09:22:51.409Z,65.14
2023-03-18T09:23:51.318Z,66.45
2023-03-18T09:24:51.293Z,65.14
2023-03-18T09:25:51.218Z,65.24
2023-03-18T09:26:51.137Z,63.90
2023-03-18T09:27:51.067Z,64.61
2023-03-18T09:28:51.017Z,64.40
2023-03-18T09:29:50.979Z,65.21
2023-03-18T09:30:50.933Z,64.53
2023-03-18T09:31:50.828Z,66.05
2023-03-18T09:32:50.823Z,65.41
2023-03-18T09:33:52.127Z,65.31
2023-03-18T09:34:50.868Z,65.34
2023-03-18T09:35:50.620Z,64.67
2023-03-18T09:36:50.526Z,66.48
2023-03-18T09:37:50.476Z,65.44
2023-03-18T09:38:50.379Z,65.75
2023-03-18T09:39:50.367Z,64.20
2023-03-18T09:40:50.279Z,64.20
2023-03-18T09:41:50.254Z,63.70
2023-03-18T09:42:50.143Z,63.39
2023-03-18T09:43:50.126Z,64.10
2023-03-18T09:44:50.046Z,63.29
2023-03-18T09:45:50.049Z,63.70
2023-03-18T09:46:49.994Z,64.30
2023-03-18T09:47:49.858Z,64.10
2023-03-18T09:48:49.827Z,63.59
2023-03-18T09:49:49.777Z,62.15
2023-03-18T09:50:49.708Z,63.29
2023-03-18T09:53:28.900Z,62.32
2023-03-18T09:54:29.836Z,61.04
2023-03-18T09:55:30.267Z,61.47
2023-03-18T09:56:29.739Z,63.93
2023-03-18T09:57:29.677Z,64.53
2023-03-18T09:58:50.607Z,63.52
2023-03-18T09:59:29.582Z,63.59
2023-03-18T10:00:29.514Z,63.23
2023-03-18T10:01:29.526Z,63.13
2023-03-18T10:02:29.374Z,61.08
2023-03-18T10:03:29.314Z,61.92
2023-03-18T10:04:29.285Z,62.52
2023-03-18T10:05:29.270Z,62.12
2023-03-18T10:06:29.105Z,62.12
2023-03-18T10:07:29.084Z,61.01
2023-03-18T10:08:29.046Z,61.92
2023-03-18T10:09:28.971Z,61.18
2023-03-18T10:10:28.909Z,60.96
2023-03-18T10:11:28.820Z,60.32
2023-03-18T10:12:28.771Z,58.28
2023-03-18T10:13:28.728Z,57.75
2023-03-18T10:14:28.661Z,58.25
2023-03-18T10:15:28.589Z,57.72
2023-03-18T10:17:37.705Z,57.12
2023-03-18T10:18:38.661Z,57.24
2023-03-18T10:19:38.578Z,57.22
2023-03-18T10:20:38.545Z,56.82
2023-03-18T10:21:38.505Z,58.02
2023-03-18T10:22:38.414Z,57.19
2023-03-18T10:23:38.330Z,55.99
2023-03-18T10:24:38.308Z,56.29
2023-03-18T10:25:38.241Z,55.79
2023-03-18T10:26:38.174Z,56.29
2023-03-18T10:27:38.148Z,56.49
2023-03-18T10:28:38.112Z,55.99
2023-03-18T10:29:37.987Z,55.99
2023-03-18T10:30:37.973Z,56.09
2023-03-18T10:31:37.987Z,55.38
2023-03-18T10:32:49.095Z,56.19
2023-03-18T10:33:37.774Z,56.26
2023-03-18T10:34:58.668Z,56.09
2023-03-18T10:35:37.728Z,55.88
2023-03-18T10:36:37.583Z,56.38
2023-03-18T10:37:37.500Z,56.19
2023-03-18T10:38:37.440Z,56.09
2023-03-18T10:39:37.430Z,54.68
2023-03-18T10:40:37.372Z,55.86
2023-03-18T10:41:37.287Z,55.55
2023-03-18T10:42:37.255Z,54.33
2023-03-18T10:43:37.165Z,55.03
2023-03-18T10:44:37.094Z,54.22
2023-03-18T10:45:37.070Z,54.20
2023-03-18T10:46:37.235Z,54.43
2023-03-18T10:47:37.001Z,53.62
2023-03-18T10:48:36.896Z,54.00
2023-03-18T10:49:36.847Z,54.22
2023-03-18T10:50:36.960Z,53.92
2023-03-18T10:51:36.691Z,53.52
2023-03-18T10:54:15.510Z,54.83
2023-03-18T10:55:16.451Z,54.93
2023-03-18T10:56:16.410Z,54.35
2023-03-18T10:57:16.332Z,54.98
2023-03-18T10:58:16.286Z,56.09
2023-03-18T10:59:16.289Z,56.41
2023-03-18T11:00:16.197Z,55.81
2023-03-18T11:01:18.737Z,57.62
2023-03-18T11:02:16.063Z,56.34
2023-03-18T11:03:16.070Z,56.71
2023-03-18T11:04:15.919Z,56.51
2023-03-18T11:05:15.876Z,56.41
2023-03-18T11:06:15.812Z,56.38
2023-03-18T11:07:15.731Z,55.38
2023-03-18T11:08:15.700Z,55.31
2023-03-18T11:09:15.632Z,56.34
2023-03-18T11:10:36.792Z,56.84
2023-03-18T11:11:15.904Z,56.74
2023-03-18T11:12:17.313Z,56.87
2023-03-18T11:13:15.377Z,57.28
2023-03-18T11:14:15.333Z,58.28
2023-03-18T11:15:15.251Z,57.35
2023-03-18T11:16:15.349Z,57.45
2023-03-18T11:17:15.130Z,57.65
2023-03-18T11:18:16.718Z,57.15
2023-03-18T11:19:15.034Z,57.57
2023-03-18T11:20:14.985Z,58.58
2023-03-18T11:21:14.929Z,57.98
2023-03-18T11:22:14.901Z,58.28
2023-03-18T11:23:14.806Z,57.78
2023-03-18T11:24:14.710Z,56.64
2023-03-18T11:25:14.675Z,56.87
2023-03-18T11:26:14.591Z,58.21
2023-03-18T11:27:14.566Z,59.42
2023-03-18T11:28:35.454Z,59.31
2023-03-18T11:29:14.463Z,58.61
2023-03-18T11:30:18.662Z,58.64
2023-03-18T11:31:14.380Z,58.21
2023-03-18T11:32:14.257Z,58.91
2023-03-18T11:33:14.419Z,58.91
2023-03-18T11:34:14.129Z,58.91
2023-03-18T11:35:14.099Z,58.21
2023-03-18T11:36:14.014Z,57.90
2023-03-18T11:37:13.927Z,57.70
2023-03-18T11:38:13.949Z,57.81
2023-03-18T11:39:13.860Z,59.52
2023-03-18T11:40:13.992Z,59.42
2023-03-18T11:41:13.735Z,59.64
2023-03-18T11:42:13.687Z,59.44
2023-03-18T11:43:13.590Z,59.34
2023-03-18T11:44:13.534Z,59.34
2023-03-18T11:45:13.469Z,59.67
2023-03-18T11:46:13.402Z,59.07
2023-03-18T11:47:13.347Z,59.37
2023-03-18T11:48:13.316Z,59.60
2023-03-18T11:49:13.225Z,60.21
2023-03-18T11:50:13.176Z,61.11
2023-03-18T11:51:13.107Z,59.90
2023-03-18T11:52:13.099Z,60.10
2023-03-18T11:53:12.989Z,60.41
2023-03-18T11:54:12.927Z,60.58
2023-03-18T11:55:12.839Z,59.67
2023-03-18T11:56:12.777Z,59.97
2023-03-18T11:57:12.747Z,59.47
2023-03-18T11:58:12.935Z,59.27
2023-03-18T11:59:12.599Z,59.37
2023-03-18T12:00:12.564Z,60.08
2023-03-18T12:01:12.506Z,59.90
2023-03-18T12:02:12.524Z,59.80
2023-03-18T12:03:12.410Z,59.30
2023-03-18T12:04:12.367Z,59.00
2023-03-18T12:05:12.326Z,59.80
2023-03-18T12:06:12.234Z,59.09
2023-03-18T12:07:12.117Z,59.20
2023-03-18T12:08:12.081Z,59.80
2023-03-18T12:09:12.000Z,60.74
2023-03-18T12:10:11.983Z,60.91
2023-03-18T12:11:11.877Z,61.01
2023-03-18T12:12:11.844Z,59.27
2023-03-18T12:13:11.777Z,58.47
2023-03-18T12:14:11.755Z,58.54
2023-03-18T12:15:11.667Z,58.11
2023-03-18T12:16:11.650Z,57.37
2023-03-18T12:17:11.514Z,56.97
2023-03-18T12:18:11.478Z,57.12
2023-03-18T12:19:11.442Z,55.58
2023-03-18T12:20:11.371Z,55.68
2023-03-18T12:21:11.327Z,56.06
2023-03-18T12:22:11.255Z,55.26
2023-03-18T12:23:11.176Z,53.95
2023-03-18T12:24:11.114Z,53.95
2023-03-18T12:25:11.091Z,53.88
2023-03-18T12:26:10.992Z,55.08
2023-03-18T12:27:10.932Z,56.01
2023-03-18T12:28:10.917Z,56.99
2023-03-18T12:29:10.817Z,54.88
2023-03-18T12:30:10.726Z,55.16
2023-03-18T12:31:10.719Z,55.16
2023-03-18T12:32:10.669Z,54.72
2023-03-18T12:33:10.630Z,53.12
2023-03-18T12:34:10.561Z,53.75
2023-03-18T12:35:10.488Z,54.88
2023-03-18T12:36:10.434Z,55.41
2023-03-18T12:37:10.320Z,55.43
2023-03-18T12:38:10.279Z,55.91
2023-03-18T12:39:10.202Z,55.71
2023-03-18T12:40:31.309Z,56.21
2023-03-18T12:41:10.092Z,55.21
2023-03-18T12:42:10.012Z,55.00
2023-03-18T12:43:10.003Z,54.43
2023-03-18T12:44:09.890Z,55.96
2023-03-18T12:45:09.846Z,56.87
2023-03-18T12:46:09.907Z,56.54
2023-03-18T12:47:09.732Z,56.97
2023-03-18T12:48:09.670Z,56.16
2023-03-18T12:49:09.612Z,56.49
2023-03-18T12:50:09.553Z,56.32
2023-03-18T12:51:09.466Z,56.72
2023-03-18T12:52:09.454Z,57.15
2023-03-18T12:53:09.395Z,57.76
2023-03-18T12:54:09.311Z,57.96
2023-03-18T12:55:09.282Z,57.35
2023-03-18T12:56:09.196Z,57.25
2023-03-18T12:57:09.122Z,58.26
2023-03-18T12:58:30.062Z,58.16
2023-03-18T12:59:09.005Z,59.07
2023-03-18T13:00:08.954Z,58.06
2023-03-18T13:01:09.052Z,57.03
2023-03-18T13:02:08.991Z,57.12
2023-03-18T13:03:08.738Z,57.60
2023-03-18T13:04:08.698Z,56.77
2023-03-18T13:05:08.641Z,55.74
2023-03-18T13:06:08.595Z,55.54
2023-03-18T13:07:08.521Z,55.13
2023-03-18T13:08:08.462Z,54.83
2023-03-18T13:09:08.413Z,55.00
2023-03-18T13:10:08.365Z,53.60
2023-03-18T13:11:09.996Z,54.03